Cap Felix — ONFH — position and weather

sailwx.info

Track history (hours):
 
Tides and Currents Weather Stations Pressure Air Temp Water Temp Dewpoint Dewpoint Depression Visibility Wind Speed Wind Dir Waves Ship Positions

Cap Felix

Last reported at 2017-Aug-13 12:35 UTC. Time now 2017-Aug-22 09:16 UTC.
Position N 29°27' W 089°38'.
Warning: this ship's position is 8 days out of date.

Length 275 m; draft 10.8 m.

Type: Tanker. MMSI: 205517000.

Date/timePositionNaut miles runAvg speedWind from/ knotsBaromVisibWave heightAir tempDewpointWater temp
2017-Aug-13 12:35N 29°27' W 089°38'41 8.4
2017-Aug-13 07:45N 29°55' W 090°13'413.9
2017-Aug-13 07:27N 29°58' W 090°16'511.9
2017-Aug-13 07:00N 29°56' W 090°22'1 0.0
2017-Aug-12 02:29N 29°57' W 090°22'4 0.1
2017-Aug-10 20:44N 29°58' W 090°18'1 2.1
2017-Aug-10 20:13N 29°58' W 090°17'2 4.8
2017-Aug-10 19:52N 29°57' W 090°18'3 8.9
2017-Aug-10 19:30N 29°56' W 090°22'  
Track history (hours):
 
Tides and Currents Weather Stations Pressure Air Temp Water Temp Dewpoint Dewpoint Depression Visibility Wind Speed Wind Dir Waves Ship Positions

Cap Felix

Last reported at 2017-Aug-13 12:35 UTC. Time now 2017-Aug-22 09:16 UTC.
Position N 29°27' W 089°38'.
Warning: this ship's position is 8 days out of date.

Length 275 m; draft 10.8 m.

Type: Tanker. MMSI: 205517000.

Date/timePositionNaut miles runAvg speedWind from/ knotsBaromVisibWave heightAir tempDewpointWater temp
2017-Aug-13 12:35N 29°27' W 089°38'41 8.4
2017-Aug-13 07:45N 29°55' W 090°13'413.9
2017-Aug-13 07:27N 29°58' W 090°16'511.9
2017-Aug-13 07:00N 29°56' W 090°22'1 0.0
2017-Aug-12 02:29N 29°57' W 090°22'4 0.1
2017-Aug-10 20:44N 29°58' W 090°18'1 2.1
2017-Aug-10 20:13N 29°58' W 090°17'2 4.8
2017-Aug-10 19:52N 29°57' W 090°18'3 8.9
2017-Aug-10 19:30N 29°56' W 090°22'  

Dump ship's entire track history